Faaborg, Denmark
Current Conditions -  °F | °C
As of 11:20 AM on Sunday 21 Dec 2014 (Local Time) from ETGG Reporting Station
Overcast Overcast  
Wind Chill: 36°   Ceiling: 13000
Heat Index: 45°   Visibility: 5mi
Dew Point: 39°   Wind: 22mph
Humidity: 81%   Direction: 250°WSW
Pressure: 30.06"   Gusts: NA
Location:  55.1°N, 10.24°E
Report Text: ETGG 211020Z 25019KT 8000 FEW030 OVC130 07/04 Q1018 BLU
Loading
Personal Weather Stations






























Interactive Weather Map New forecast layout! Learn more

10-Day Weather Forecast

Advertisements
Track Severe Weather on mobile